createdAt,value
2022-11-21T00:00:54.484Z,16.77
2022-11-21T00:03:21.669Z,15.02
2022-11-21T00:05:49.562Z,15.75
2022-11-21T00:08:18.656Z,14.82
2022-11-21T00:10:46.090Z,15.60
2022-11-21T00:13:19.606Z,15.95
2022-11-21T00:15:47.085Z,13.25
2022-11-21T00:18:14.039Z,15.82
2022-11-21T00:20:41.900Z,14.80
2022-11-21T00:23:08.991Z,13.63
2022-11-21T00:25:36.130Z,17.23
2022-11-21T00:28:03.227Z,14.82
2022-11-21T00:30:30.028Z,13.93
2022-11-21T00:32:58.605Z,15.98
2022-11-21T00:35:25.349Z,20.55
2022-11-21T00:37:52.005Z,22.63
2022-11-21T00:40:19.007Z,20.13
2022-11-21T00:42:45.680Z,19.67
2022-11-21T00:45:12.350Z,19.98
2022-11-21T00:47:39.001Z,19.77
2022-11-21T00:50:06.308Z,19.95
2022-11-21T00:52:32.969Z,16.90
2022-11-21T00:54:59.565Z,14.85
2022-11-21T00:57:26.156Z,13.85
2022-11-21T00:59:52.700Z,12.95
2022-11-21T01:02:19.374Z,13.13
2022-11-21T01:04:45.977Z,14.90
2022-11-21T01:07:15.662Z,14.80
2022-11-21T01:09:42.293Z,14.48
2022-11-21T01:12:08.987Z,14.10
2022-11-21T01:14:35.562Z,15.82
2022-11-21T01:17:02.319Z,17.35
2022-11-21T01:19:28.872Z,18.17
2022-11-21T01:21:55.443Z,19.27
2022-11-21T01:24:22.013Z,17.25
2022-11-21T01:26:50.947Z,20.10
2022-11-21T01:29:17.678Z,19.50
2022-11-21T01:31:44.459Z,20.33
2022-11-21T01:34:11.384Z,19.55
2022-11-21T01:36:37.935Z,19.92
2022-11-21T01:39:06.740Z,24.00
2022-11-21T01:41:36.991Z,17.70
2022-11-21T01:44:13.822Z,20.55
2022-11-21T01:46:40.421Z,25.10
2022-11-21T01:49:10.962Z,20.65
2022-11-21T01:51:53.443Z,17.85
2022-11-21T01:54:20.044Z,17.38
2022-11-21T01:56:59.791Z,16.30
2022-11-21T02:00:01.032Z,19.50
2022-11-21T02:02:34.513Z,16.75
2022-11-21T02:05:02.585Z,17.77
2022-11-21T02:07:33.795Z,20.58
2022-11-21T02:10:03.186Z,19.05
2022-11-21T02:12:37.160Z,14.38
2022-11-21T02:15:04.340Z,22.73
2022-11-21T02:17:32.003Z,18.20
2022-11-21T02:20:08.116Z,34.40
2022-11-21T02:23:05.721Z,12.00
2022-11-21T02:25:36.524Z,11.73
2022-11-21T02:28:07.072Z,10.10
2022-11-21T02:30:36.973Z,8.82
2022-11-21T02:33:03.725Z,10.88
2022-11-21T02:35:30.359Z,9.88
2022-11-21T02:38:17.234Z,9.50
2022-11-21T02:40:52.148Z,8.68
2022-11-21T02:43:30.163Z,9.40
2022-11-21T02:45:56.791Z,12.32
2022-11-21T02:48:23.346Z,11.43
2022-11-21T02:50:49.897Z,12.30
2022-11-21T02:53:19.115Z,8.00
2022-11-21T02:55:46.039Z,10.13
2022-11-21T02:58:13.037Z,9.77
2022-11-21T03:00:41.768Z,10.25
2022-11-21T03:03:09.276Z,10.00
2022-11-21T03:05:36.180Z,11.52
2022-11-21T03:08:03.779Z,19.75
2022-11-21T03:10:30.363Z,15.88
2022-11-21T03:13:01.287Z,10.77
2022-11-21T03:15:30.187Z,10.25
2022-11-21T03:17:56.945Z,12.80
2022-11-21T03:20:23.631Z,8.85
2022-11-21T03:22:50.490Z,9.45
2022-11-21T03:25:17.640Z,17.90
2022-11-21T03:27:44.248Z,16.63
2022-11-21T03:30:11.490Z,10.57
2022-11-21T03:32:38.132Z,12.30
2022-11-21T03:35:05.602Z,10.82
2022-11-21T03:37:32.170Z,12.30
2022-11-21T03:39:58.732Z,11.93
2022-11-21T03:42:25.309Z,14.07
2022-11-21T03:44:51.867Z,12.73
2022-11-21T03:47:18.476Z,12.57
2022-11-21T03:49:45.031Z,16.50
2022-11-21T03:52:11.586Z,20.83
2022-11-21T03:54:38.140Z,22.65
2022-11-21T03:57:04.712Z,11.60
2022-11-21T03:59:31.263Z,13.93
2022-11-21T04:01:57.866Z,8.98
2022-11-21T04:04:24.686Z,29.52
2022-11-21T04:06:51.360Z,18.27
2022-11-21T04:09:17.943Z,13.60
2022-11-21T04:11:44.480Z,14.38
2022-11-21T04:14:11.032Z,17.40
2022-11-21T04:16:37.621Z,16.27
2022-11-21T04:19:04.210Z,14.15
2022-11-21T04:21:30.776Z,13.82
2022-11-21T04:23:57.333Z,13.35
2022-11-21T04:26:23.944Z,11.00
2022-11-21T04:28:50.516Z,15.88
2022-11-21T04:31:17.165Z,13.60
2022-11-21T04:33:43.721Z,12.93
2022-11-21T04:36:10.425Z,9.80
2022-11-21T04:38:37.525Z,11.32
2022-11-21T04:41:04.891Z,10.25
2022-11-21T04:43:31.572Z,9.90
2022-11-21T04:45:58.121Z,9.85
2022-11-21T04:48:24.845Z,9.45
2022-11-21T04:50:51.460Z,10.05
2022-11-21T04:53:18.067Z,11.40
2022-11-21T04:55:44.691Z,12.52
2022-11-21T04:58:11.249Z,10.00
2022-11-21T05:00:37.844Z,11.40
2022-11-21T05:03:05.690Z,9.30
2022-11-21T05:05:32.742Z,10.18
2022-11-21T05:07:59.373Z,9.75
2022-11-21T05:10:26.010Z,12.10
2022-11-21T05:13:18.188Z,11.32
2022-11-21T05:15:45.240Z,12.05
2022-11-21T05:18:11.981Z,10.95
2022-11-21T05:20:38.650Z,14.10
2022-11-21T05:23:05.961Z,11.32
2022-11-21T05:25:32.643Z,13.30
2022-11-21T05:27:59.264Z,12.73
2022-11-21T05:30:25.990Z,11.38
2022-11-21T05:32:52.708Z,12.35
2022-11-21T05:35:19.293Z,9.40
2022-11-21T05:37:45.902Z,11.13
2022-11-21T05:40:12.662Z,11.75
2022-11-21T05:42:59.261Z,11.23
2022-11-21T05:45:26.129Z,9.98
2022-11-21T05:47:52.693Z,10.27
2022-11-21T05:50:19.374Z,11.57
2022-11-21T05:52:45.946Z,11.20
2022-11-21T05:55:12.517Z,10.60
2022-11-21T05:57:39.096Z,11.40
2022-11-21T06:00:06.442Z,11.23
2022-11-21T06:02:51.764Z,12.23
2022-11-21T06:05:18.366Z,11.95
2022-11-21T06:07:45.073Z,11.93
2022-11-21T06:10:11.693Z,11.45
2022-11-21T06:12:38.264Z,13.70
2022-11-21T06:15:05.020Z,9.52
2022-11-21T06:17:32.300Z,10.13
2022-11-21T06:19:58.862Z,10.30
2022-11-21T06:22:25.439Z,11.45
2022-11-21T06:24:51.993Z,10.35
2022-11-21T06:27:18.559Z,9.35
2022-11-21T06:29:45.115Z,11.05
2022-11-21T06:32:11.850Z,11.32
2022-11-21T06:34:38.481Z,12.88
2022-11-21T06:37:05.176Z,16.73
2022-11-21T06:39:31.719Z,22.20
2022-11-21T06:41:58.981Z,17.10
2022-11-21T06:44:25.934Z,12.60
2022-11-21T06:46:52.672Z,9.25
2022-11-21T06:49:19.506Z,11.45
2022-11-21T06:51:46.078Z,8.35
2022-11-21T06:54:16.509Z,7.75
2022-11-21T06:56:43.884Z,8.10
2022-11-21T06:59:11.350Z,9.98
2022-11-21T07:01:38.051Z,11.65
2022-11-21T07:04:04.805Z,14.40
2022-11-21T07:06:31.417Z,10.77
2022-11-21T07:09:30.866Z,11.88
2022-11-21T07:11:44.631Z,12.05
2022-11-21T07:14:11.704Z,11.48
2022-11-21T07:16:38.668Z,10.95
2022-11-21T07:19:05.610Z,10.70
2022-11-21T07:21:32.231Z,12.90
2022-11-21T07:23:59.616Z,10.73
2022-11-21T07:26:26.180Z,10.25
2022-11-21T07:28:52.784Z,9.20
2022-11-21T07:31:19.357Z,13.07
2022-11-21T07:33:47.472Z,14.13
2022-11-21T07:36:14.139Z,12.85
2022-11-21T07:38:41.731Z,14.82
2022-11-21T07:41:09.038Z,12.20
2022-11-21T07:43:35.688Z,12.23
2022-11-21T07:46:02.369Z,16.40
2022-11-21T07:48:28.970Z,12.80
2022-11-21T07:50:55.522Z,10.38
2022-11-21T07:53:22.194Z,10.85
2022-11-21T07:55:48.810Z,10.60
2022-11-21T07:58:16.515Z,13.18
2022-11-21T08:00:43.409Z,10.73
2022-11-21T08:03:12.295Z,13.07
2022-11-21T08:05:41.217Z,11.25
2022-11-21T08:08:08.913Z,10.65
2022-11-21T08:10:40.796Z,12.73
2022-11-21T08:13:07.430Z,10.82
2022-11-21T08:15:34.066Z,14.57
2022-11-21T08:18:19.222Z,14.02
2022-11-21T08:20:46.431Z,15.50
2022-11-21T08:23:13.093Z,13.43
2022-11-21T08:25:40.939Z,14.10
2022-11-21T08:28:09.332Z,14.13
2022-11-21T08:30:36.918Z,14.10
2022-11-21T08:33:04.188Z,12.48
2022-11-21T08:35:30.784Z,11.80
2022-11-21T08:38:01.480Z,10.75
2022-11-21T08:40:30.132Z,10.63
2022-11-21T08:43:06.053Z,10.00
2022-11-21T08:45:34.308Z,9.43
2022-11-21T08:48:01.006Z,9.05
2022-11-21T08:50:28.181Z,9.80
2022-11-21T08:53:01.979Z,8.35
2022-11-21T08:55:29.557Z,8.48
2022-11-21T08:57:56.221Z,8.63
2022-11-21T09:00:23.204Z,9.63
2022-11-21T09:02:49.872Z,12.57
2022-11-21T09:05:16.559Z,8.20
2022-11-21T09:07:43.315Z,11.25
2022-11-21T09:10:10.361Z,9.77
2022-11-21T09:12:37.014Z,15.80
2022-11-21T09:15:22.493Z,10.95
2022-11-21T09:18:04.308Z,10.73
2022-11-21T09:20:34.067Z,9.50
2022-11-21T09:23:08.413Z,11.40
2022-11-21T09:25:35.354Z,8.15
2022-11-21T09:28:06.703Z,14.75
2022-11-21T09:30:34.110Z,9.95
2022-11-21T09:33:05.166Z,13.90
2022-11-21T09:35:32.529Z,9.82
2022-11-21T09:38:00.233Z,13.35
2022-11-21T09:40:29.401Z,11.77
2022-11-21T09:43:27.629Z,10.10
2022-11-21T09:46:13.037Z,11.00
2022-11-21T09:49:00.413Z,10.18
2022-11-21T09:51:30.984Z,9.00
2022-11-21T09:53:59.812Z,10.32
2022-11-21T09:56:29.026Z,8.45
2022-11-21T09:59:20.527Z,9.63
2022-11-21T10:01:47.533Z,6.50
2022-11-21T10:04:14.421Z,6.47
2022-11-21T10:06:59.790Z,11.18
2022-11-21T10:09:32.558Z,7.05
2022-11-21T10:12:37.324Z,6.13
2022-11-21T10:15:44.961Z,8.35
2022-11-21T10:18:28.019Z,7.88
2022-11-21T10:21:00.018Z,8.48
2022-11-21T10:23:39.592Z,7.68
2022-11-21T10:26:18.141Z,6.32
2022-11-21T10:28:57.339Z,10.43
2022-11-21T10:31:25.892Z,7.85
2022-11-21T10:33:56.378Z,8.35
2022-11-21T10:36:25.911Z,7.90
2022-11-21T10:38:58.556Z,6.18
2022-11-21T10:41:48.510Z,8.65
2022-11-21T10:44:43.741Z,7.38
2022-11-21T10:47:27.285Z,5.70
2022-11-21T10:50:03.396Z,8.05
2022-11-21T10:52:34.981Z,8.00
2022-11-21T10:55:04.901Z,6.22
2022-11-21T10:57:36.550Z,9.98
2022-11-21T11:00:24.720Z,7.57
2022-11-21T11:02:57.421Z,9.10
2022-11-21T11:05:32.492Z,7.95
2022-11-21T11:08:13.600Z,6.07
2022-11-21T11:10:42.673Z,11.68
2022-11-21T11:13:45.981Z,11.20
2022-11-21T11:16:17.464Z,5.82
2022-11-21T11:18:50.804Z,6.45
2022-11-21T11:21:41.440Z,8.93
2022-11-21T11:24:14.068Z,7.10
2022-11-21T11:29:28.183Z,6.40
2022-11-21T11:32:21.272Z,7.80
2022-11-21T11:35:08.454Z,5.38
2022-11-21T11:37:41.339Z,5.88
2022-11-21T11:40:20.557Z,6.38
2022-11-21T11:43:24.477Z,5.88
2022-11-21T11:46:27.807Z,8.63
2022-11-21T11:49:19.752Z,4.57
2022-11-21T11:51:55.222Z,6.05
2022-11-21T11:54:32.685Z,5.80
2022-11-21T11:56:59.525Z,6.03
2022-11-21T11:59:33.583Z,5.07
2022-11-21T12:02:13.040Z,5.90
2022-11-21T12:05:00.184Z,5.78
2022-11-21T12:11:12.299Z,9.32
2022-11-21T12:13:40.173Z,9.00
2022-11-21T12:16:13.909Z,6.28
2022-11-21T12:19:03.119Z,9.23
2022-11-21T12:21:29.905Z,7.45
2022-11-21T12:23:58.900Z,6.45
2022-11-21T12:27:13.184Z,6.28
2022-11-21T12:30:04.911Z,12.27
2022-11-21T12:32:47.916Z,10.43
2022-11-21T12:38:17.116Z,11.38
2022-11-21T12:40:59.132Z,8.98
2022-11-21T12:43:57.461Z,9.60
2022-11-21T12:46:32.963Z,8.07
2022-11-21T12:49:40.772Z,8.38
2022-11-21T12:52:53.047Z,10.68
2022-11-21T12:55:39.891Z,11.98
2022-11-21T12:58:39.935Z,10.05
2022-11-21T13:01:21.668Z,6.78
2022-11-21T13:04:00.252Z,9.23
2022-11-21T13:06:30.673Z,9.63
2022-11-21T13:09:01.865Z,8.82
2022-11-21T13:11:55.138Z,9.55
2022-11-21T13:14:45.667Z,8.05
2022-11-21T13:17:30.751Z,12.13
2022-11-21T13:20:04.284Z,7.07
2022-11-21T13:22:36.892Z,8.35
2022-11-21T13:25:03.525Z,10.60
2022-11-21T13:27:40.519Z,7.90
2022-11-21T13:30:07.086Z,11.70
2022-11-21T13:32:46.738Z,10.48
2022-11-21T13:35:16.433Z,7.28
2022-11-21T13:37:52.236Z,9.07
2022-11-21T13:40:39.093Z,11.40
2022-11-21T13:43:31.996Z,11.65
2022-11-21T13:45:58.444Z,8.20
2022-11-21T13:48:37.157Z,7.78
2022-11-21T13:51:28.350Z,7.47
2022-11-21T13:53:58.044Z,11.32
2022-11-21T13:56:27.917Z,9.43
2022-11-21T13:59:15.896Z,8.63
2022-11-21T14:01:54.679Z,9.38
2022-11-21T14:04:30.191Z,8.48
2022-11-21T14:07:27.770Z,12.93
2022-11-21T14:09:56.133Z,10.73
2022-11-21T14:12:33.676Z,18.05
2022-11-21T14:15:01.876Z,10.65
2022-11-21T14:17:45.254Z,11.40
2022-11-21T14:20:19.192Z,10.40
2022-11-21T14:23:05.349Z,10.93
2022-11-21T14:25:40.815Z,12.65
2022-11-21T14:28:15.731Z,12.90
2022-11-21T14:30:44.429Z,10.80
2022-11-21T14:33:32.308Z,13.27
2022-11-21T14:36:00.412Z,10.95
2022-11-21T14:38:29.159Z,13.85
2022-11-21T14:41:23.898Z,10.38
2022-11-21T14:44:01.313Z,11.15
2022-11-21T14:46:32.237Z,13.88
2022-11-21T14:49:17.296Z,16.48
2022-11-21T14:52:02.210Z,11.55
2022-11-21T14:54:33.252Z,14.63
2022-11-21T14:57:02.844Z,14.45
2022-11-21T14:59:40.816Z,14.77
2022-11-21T15:02:18.188Z,17.25
2022-11-21T15:04:46.487Z,18.98
2022-11-21T15:07:40.600Z,16.85
2022-11-21T15:10:30.563Z,16.20
2022-11-21T15:13:05.353Z,19.23
2022-11-21T15:15:43.596Z,20.80
2022-11-21T15:18:28.624Z,14.05
2022-11-21T15:21:03.912Z,16.98
2022-11-21T15:23:43.082Z,14.57
2022-11-21T15:26:33.054Z,16.20
2022-11-21T15:29:01.238Z,17.38
2022-11-21T15:31:28.201Z,14.48
2022-11-21T15:34:34.745Z,16.23
2022-11-21T15:37:27.843Z,18.85
2022-11-21T15:39:54.621Z,16.57
2022-11-21T15:42:27.812Z,14.52
2022-11-21T15:45:02.561Z,17.88
2022-11-21T15:47:29.288Z,15.35
2022-11-21T15:49:55.876Z,16.13
2022-11-21T15:52:22.897Z,17.13
2022-11-21T15:54:50.053Z,19.48
2022-11-21T15:59:49.915Z,15.90
2022-11-21T16:02:16.539Z,16.80
2022-11-21T16:04:43.105Z,15.50
2022-11-21T16:07:09.760Z,19.05
2022-11-21T16:09:37.407Z,18.10
2022-11-21T16:12:04.429Z,17.30
2022-11-21T16:14:31.051Z,15.65
2022-11-21T16:16:57.610Z,15.20
2022-11-21T16:19:25.953Z,19.83
2022-11-21T16:21:53.735Z,27.05
2022-11-21T16:24:20.545Z,20.77
2022-11-21T16:26:48.614Z,24.83
2022-11-21T16:29:15.211Z,22.95
2022-11-21T16:31:41.772Z,23.67
2022-11-21T16:34:08.394Z,27.67
2022-11-21T16:36:35.154Z,23.83
2022-11-21T16:39:09.026Z,28.02
2022-11-21T16:41:39.376Z,27.27
2022-11-21T16:44:12.527Z,31.27
2022-11-21T16:49:09.401Z,27.85
2022-11-21T16:51:36.030Z,29.83
2022-11-21T16:54:07.346Z,29.90
2022-11-21T16:56:35.629Z,26.20
2022-11-21T16:59:02.224Z,28.23
2022-11-21T17:01:28.950Z,28.90
2022-11-21T17:03:55.597Z,26.42
2022-11-21T17:06:27.073Z,30.88
2022-11-21T17:08:54.261Z,28.85
2022-11-21T17:11:23.156Z,25.35
2022-11-21T17:13:51.198Z,30.42
2022-11-21T17:16:20.457Z,29.27
2022-11-21T17:18:47.969Z,25.50
2022-11-21T17:21:16.381Z,27.35
2022-11-21T17:23:45.269Z,22.50
2022-11-21T17:26:14.331Z,25.95
2022-11-21T17:28:45.617Z,22.48
2022-11-21T17:31:14.516Z,22.58
2022-11-21T17:33:42.410Z,21.98
2022-11-21T17:36:13.606Z,21.98
2022-11-21T17:38:40.382Z,24.15
2022-11-21T17:41:09.777Z,20.52
2022-11-21T17:43:36.413Z,21.75
2022-11-21T17:46:09.615Z,23.20
2022-11-21T17:48:37.784Z,29.00
2022-11-21T17:51:13.537Z,30.83
2022-11-21T17:53:42.278Z,31.27
2022-11-21T17:56:11.901Z,31.75
2022-11-21T17:58:38.496Z,26.10
2022-11-21T18:01:06.713Z,25.92
2022-11-21T18:03:33.686Z,26.25
2022-11-21T18:06:11.101Z,21.60
2022-11-21T18:08:39.742Z,24.65
2022-11-21T18:11:08.280Z,28.85
2022-11-21T18:13:35.715Z,19.90
2022-11-21T18:16:05.248Z,19.80
2022-11-21T18:18:33.551Z,21.98
2022-11-21T18:21:16.297Z,22.15
2022-11-21T18:23:44.046Z,25.40
2022-11-21T18:26:13.304Z,25.42
2022-11-21T18:28:40.613Z,25.48
2022-11-21T18:31:19.158Z,22.83
2022-11-21T18:33:49.452Z,28.95
2022-11-21T18:36:16.372Z,25.00
2022-11-21T18:38:51.448Z,22.73
2022-11-21T18:41:28.141Z,21.65
2022-11-21T18:43:57.097Z,22.70
2022-11-21T18:46:25.261Z,25.48
2022-11-21T18:49:02.728Z,22.27
2022-11-21T18:51:31.992Z,25.65
2022-11-21T18:54:03.219Z,25.15
2022-11-21T18:56:30.358Z,28.80
2022-11-21T18:58:58.828Z,25.98
2022-11-21T19:01:28.204Z,22.25
2022-11-21T19:03:55.603Z,20.98
2022-11-21T19:06:23.468Z,20.70
2022-11-21T19:08:53.372Z,19.30
2022-11-21T19:11:21.277Z,23.25
2022-11-21T19:13:48.924Z,22.45
2022-11-21T19:16:21.261Z,21.67
2022-11-21T19:19:05.281Z,20.50
2022-11-21T19:21:35.757Z,25.95
2022-11-21T19:24:02.585Z,25.48
2022-11-21T19:26:31.099Z,30.95
2022-11-21T19:28:58.740Z,24.27
2022-11-21T19:31:25.949Z,26.63
2022-11-21T19:33:52.712Z,22.80
2022-11-21T19:36:21.559Z,23.73
2022-11-21T19:38:51.208Z,24.55
2022-11-21T19:41:26.815Z,22.60
2022-11-21T19:43:58.497Z,23.08
2022-11-21T19:46:31.329Z,23.85
2022-11-21T19:48:58.949Z,26.42
2022-11-21T19:51:30.004Z,24.95
2022-11-21T19:53:56.601Z,25.33
2022-11-21T19:56:25.782Z,21.60
2022-11-21T19:58:53.926Z,22.27
2022-11-21T20:01:26.371Z,20.00
2022-11-21T20:03:55.532Z,22.50
2022-11-21T20:06:27.678Z,24.50
2022-11-21T20:08:55.688Z,26.53
2022-11-21T20:11:23.688Z,22.80
2022-11-21T20:13:51.412Z,25.25
2022-11-21T20:16:29.721Z,27.17
2022-11-21T20:18:59.750Z,24.65
2022-11-21T20:21:26.985Z,25.08
2022-11-21T20:23:54.039Z,25.15
2022-11-21T20:26:22.025Z,25.88
2022-11-21T20:28:49.488Z,23.02
2022-11-21T20:31:18.053Z,30.45
2022-11-21T20:33:49.853Z,26.27
2022-11-21T20:36:21.613Z,25.20
2022-11-21T20:39:17.994Z,26.35
2022-11-21T20:41:46.324Z,23.60
2022-11-21T20:44:57.023Z,26.33
2022-11-21T20:47:10.356Z,23.77
2022-11-21T20:49:37.003Z,26.88
2022-11-21T20:54:50.243Z,25.88
2022-11-21T20:57:16.813Z,23.25
2022-11-21T20:59:43.656Z,24.38
2022-11-21T21:02:13.791Z,22.40
2022-11-21T21:04:40.547Z,21.50
2022-11-21T21:07:07.304Z,22.05
2022-11-21T21:09:34.142Z,22.02
2022-11-21T21:12:00.719Z,23.38
2022-11-21T21:14:27.676Z,22.95
2022-11-21T21:16:54.309Z,20.52
2022-11-21T21:19:21.753Z,23.77
2022-11-21T21:21:49.251Z,21.33
2022-11-21T21:24:17.097Z,26.08
2022-11-21T21:26:48.959Z,23.00
2022-11-21T21:29:19.249Z,22.35
2022-11-21T21:31:51.015Z,23.05
2022-11-21T21:34:20.747Z,22.20
2022-11-21T21:36:47.914Z,23.67
2022-11-21T21:39:14.589Z,22.88
2022-11-21T21:41:46.034Z,23.02
2022-11-21T21:44:13.229Z,23.88
2022-11-21T21:46:39.944Z,21.92
2022-11-21T21:49:06.876Z,20.90
2022-11-21T21:51:33.698Z,24.40
2022-11-21T21:54:00.478Z,18.73
2022-11-21T21:56:28.908Z,19.60
2022-11-21T21:58:57.470Z,20.05
2022-11-21T22:01:27.499Z,23.25
2022-11-21T22:03:55.884Z,25.27
2022-11-21T22:06:22.611Z,22.63
2022-11-21T22:08:50.214Z,22.20
2022-11-21T22:11:23.167Z,25.33
2022-11-21T22:14:01.285Z,22.25
2022-11-21T22:16:29.205Z,24.92
2022-11-21T22:18:56.526Z,23.52
2022-11-21T22:21:26.824Z,24.42
2022-11-21T22:24:24.671Z,25.90
2022-11-21T22:26:41.824Z,22.85
2022-11-21T22:29:08.452Z,24.23
2022-11-21T22:31:35.132Z,26.85
2022-11-21T22:34:01.959Z,28.13
2022-11-21T22:36:28.599Z,24.52
2022-11-21T22:38:56.371Z,24.73
2022-11-21T22:41:25.848Z,23.08
2022-11-21T22:43:55.229Z,25.77
2022-11-21T22:46:23.908Z,24.35
2022-11-21T22:48:51.461Z,25.45
2022-11-21T22:51:24.113Z,27.77
2022-11-21T22:53:51.307Z,27.52
2022-11-21T22:56:20.492Z,23.42
2022-11-21T22:58:47.856Z,25.08
2022-11-21T23:01:17.408Z,25.42
2022-11-21T23:03:45.429Z,26.08
2022-11-21T23:06:21.507Z,24.23
2022-11-21T23:08:48.389Z,27.13
2022-11-21T23:11:17.709Z,30.92
2022-11-21T23:13:47.502Z,29.55
2022-11-21T23:16:15.529Z,30.38
2022-11-21T23:18:42.643Z,26.25
2022-11-21T23:21:10.527Z,29.55
2022-11-21T23:23:37.660Z,27.48
2022-11-21T23:26:05.956Z,27.63
2022-11-21T23:28:33.559Z,30.65
2022-11-21T23:31:00.320Z,32.95
2022-11-21T23:33:26.909Z,29.80
2022-11-21T23:35:53.544Z,28.38
2022-11-21T23:38:21.795Z,29.48
2022-11-21T23:40:49.708Z,31.23
2022-11-21T23:43:17.007Z,27.27
2022-11-21T23:45:45.472Z,28.00
2022-11-21T23:48:12.439Z,27.63
2022-11-21T23:50:39.100Z,27.88
2022-11-21T23:53:05.749Z,30.55
2022-11-21T23:55:32.397Z,28.10
2022-11-21T23:57:59.112Z,27.90
